sensor_id;sensor_type;location;lat;lon;timestamp;pressure;altitude;pressure_sealevel;temperature;humidity
4767;BME280;2397;53.576;9.746;2023-05-29T00:00:37;102326.88;;;13.35;60.42
4767;BME280;2397;53.576;9.746;2023-05-29T00:03:04;102317.69;;;13.39;60.70
4767;BME280;2397;53.576;9.746;2023-05-29T00:05:31;102325.97;;;13.45;60.56
4767;BME280;2397;53.576;9.746;2023-05-29T00:07:58;102324.91;;;13.57;60.03
4767;BME280;2397;53.576;9.746;2023-05-29T00:10:24;102321.53;;;13.55;58.91
4767;BME280;2397;53.576;9.746;2023-05-29T00:12:51;102331.56;;;13.22;60.45
4767;BME280;2397;53.576;9.746;2023-05-29T00:15:18;102332.31;;;13.13;60.65
4767;BME280;2397;53.576;9.746;2023-05-29T00:17:45;102332.25;;;13.24;60.11
4767;BME280;2397;53.576;9.746;2023-05-29T00:20:12;102329.22;;;13.28;59.79
4767;BME280;2397;53.576;9.746;2023-05-29T00:22:38;102331.44;;;13.03;59.61
4767;BME280;2397;53.576;9.746;2023-05-29T00:25:06;102332.91;;;12.85;60.63
4767;BME280;2397;53.576;9.746;2023-05-29T00:27:34;102326.66;;;12.86;61.20
4767;BME280;2397;53.576;9.746;2023-05-29T00:30:02;102332.13;;;13.05;59.75
4767;BME280;2397;53.576;9.746;2023-05-29T00:32:30;102341.28;;;13.01;59.35
4767;BME280;2397;53.576;9.746;2023-05-29T00:34:57;102341.28;;;13.01;59.69
4767;BME280;2397;53.576;9.746;2023-05-29T00:37:24;102350.13;;;12.90;59.32
4767;BME280;2397;53.576;9.746;2023-05-29T00:39:51;102350.94;;;12.91;59.88
4767;BME280;2397;53.576;9.746;2023-05-29T00:42:17;102346.84;;;12.98;59.22
4767;BME280;2397;53.576;9.746;2023-05-29T00:44:44;102355.66;;;12.87;59.20
4767;BME280;2397;53.576;9.746;2023-05-29T00:47:11;102363.53;;;12.78;59.50
4767;BME280;2397;53.576;9.746;2023-05-29T00:49:37;102366.13;;;12.57;59.98
4767;BME280;2397;53.576;9.746;2023-05-29T00:52:05;102372.13;;;12.59;60.27
4767;BME280;2397;53.576;9.746;2023-05-29T00:54:33;102370.59;;;12.46;60.32
4767;BME280;2397;53.576;9.746;2023-05-29T00:57:01;102371.34;;;12.37;60.92
4767;BME280;2397;53.576;9.746;2023-05-29T00:59:31;102372.81;;;12.30;60.82
4767;BME280;2397;53.576;9.746;2023-05-29T01:01:59;102371.59;;;12.34;61.76
4767;BME280;2397;53.576;9.746;2023-05-29T01:04:27;102369.09;;;12.10;61.43
4767;BME280;2397;53.576;9.746;2023-05-29T01:06:54;102371.38;;;12.15;61.29
4767;BME280;2397;53.576;9.746;2023-05-29T01:09:22;102377.88;;;12.00;61.34
4767;BME280;2397;53.576;9.746;2023-05-29T01:12:14;102380.88;;;12.06;61.38
4767;BME280;2397;53.576;9.746;2023-05-29T01:18:07;102384.84;;;11.79;62.17
4767;BME280;2397;53.576;9.746;2023-05-29T01:20:42;102387.25;;;11.93;61.43
4767;BME280;2397;53.576;9.746;2023-05-29T01:23:27;102385.56;;;11.81;61.27
4767;BME280;2397;53.576;9.746;2023-05-29T01:26:21;102378.94;;;11.64;62.22
4767;BME280;2397;53.576;9.746;2023-05-29T01:28:53;102374.72;;;11.62;62.79
4767;BME280;2397;53.576;9.746;2023-05-29T01:31:25;102378.31;;;11.61;62.27
4767;BME280;2397;53.576;9.746;2023-05-29T01:33:54;102383.06;;;11.45;62.37
4767;BME280;2397;53.576;9.746;2023-05-29T01:36:22;102377.63;;;11.24;63.53
4767;BME280;2397;53.576;9.746;2023-05-29T01:38:50;102365.75;;;11.30;62.59
4767;BME280;2397;53.576;9.746;2023-05-29T01:41:19;102377.72;;;11.23;63.28
4767;BME280;2397;53.576;9.746;2023-05-29T01:43:48;102383.00;;;11.23;63.35
4767;BME280;2397;53.576;9.746;2023-05-29T01:46:18;102380.44;;;11.10;63.83
4767;BME280;2397;53.576;9.746;2023-05-29T01:48:45;102376.13;;;11.09;64.00
4767;BME280;2397;53.576;9.746;2023-05-29T01:51:12;102370.94;;;11.08;63.60
4767;BME280;2397;53.576;9.746;2023-05-29T01:53:40;102388.38;;;11.10;64.05
4767;BME280;2397;53.576;9.746;2023-05-29T01:56:08;102389.41;;;10.97;64.59
4767;BME280;2397;53.576;9.746;2023-05-29T01:58:35;102387.69;;;10.85;64.61
4767;BME280;2397;53.576;9.746;2023-05-29T02:01:02;102395.75;;;10.94;64.11
4767;BME280;2397;53.576;9.746;2023-05-29T02:03:33;102401.97;;;10.70;64.81
4767;BME280;2397;53.576;9.746;2023-05-29T02:06:00;102409.25;;;10.79;64.59
4767;BME280;2397;53.576;9.746;2023-05-29T02:08:27;102407.03;;;10.73;64.68
4767;BME280;2397;53.576;9.746;2023-05-29T02:10:54;102404.91;;;10.78;64.52
4767;BME280;2397;53.576;9.746;2023-05-29T02:13:22;102397.06;;;10.89;64.41
4767;BME280;2397;53.576;9.746;2023-05-29T02:15:48;102384.44;;;10.69;64.48
4767;BME280;2397;53.576;9.746;2023-05-29T02:18:16;102404.00;;;10.90;63.98
4767;BME280;2397;53.576;9.746;2023-05-29T02:20:44;102390.66;;;10.80;64.28
4767;BME280;2397;53.576;9.746;2023-05-29T02:23:19;102401.38;;;10.66;65.31
4767;BME280;2397;53.576;9.746;2023-05-29T02:25:46;102401.97;;;10.70;64.48
4767;BME280;2397;53.576;9.746;2023-05-29T02:28:13;102397.59;;;10.58;65.37
4767;BME280;2397;53.576;9.746;2023-05-29T02:30:39;102399.00;;;10.74;65.11
4767;BME280;2397;53.576;9.746;2023-05-29T02:33:08;102397.44;;;10.72;65.03
4767;BME280;2397;53.576;9.746;2023-05-29T02:35:35;102389.69;;;10.81;64.41
4767;BME280;2397;53.576;9.746;2023-05-29T02:38:03;102392.09;;;10.61;64.95
4767;BME280;2397;53.576;9.746;2023-05-29T02:40:30;102392.69;;;10.41;65.28
4767;BME280;2397;53.576;9.746;2023-05-29T02:42:57;102386.91;;;10.59;65.04
4767;BME280;2397;53.576;9.746;2023-05-29T02:45:24;102390.34;;;10.49;65.49
4767;BME280;2397;53.576;9.746;2023-05-29T02:47:50;102393.63;;;10.39;65.73
4767;BME280;2397;53.576;9.746;2023-05-29T02:50:17;102392.84;;;10.26;66.00
4767;BME280;2397;53.576;9.746;2023-05-29T02:52:43;102395.56;;;10.25;65.91
4767;BME280;2397;53.576;9.746;2023-05-29T02:55:10;102397.91;;;10.29;65.89
4767;BME280;2397;53.576;9.746;2023-05-29T02:57:37;102392.84;;;10.01;66.29
4767;BME280;2397;53.576;9.746;2023-05-29T03:00:04;102392.44;;;10.07;66.68
4767;BME280;2397;53.576;9.746;2023-05-29T03:02:34;102398.09;;;10.01;66.96
4767;BME280;2397;53.576;9.746;2023-05-29T03:05:02;102396.00;;;10.06;66.45
4767;BME280;2397;53.576;9.746;2023-05-29T03:07:28;102394.94;;;10.21;66.65
4767;BME280;2397;53.576;9.746;2023-05-29T03:09:55;102403.19;;;9.92;67.08
4767;BME280;2397;53.576;9.746;2023-05-29T03:12:25;102404.97;;;9.91;67.64
4767;BME280;2397;53.576;9.746;2023-05-29T03:14:54;102412.47;;;9.97;67.88
4767;BME280;2397;53.576;9.746;2023-05-29T03:17:23;102396.22;;;9.78;68.01
4767;BME280;2397;53.576;9.746;2023-05-29T03:19:50;102396.63;;;9.97;67.38
4767;BME280;2397;53.576;9.746;2023-05-29T03:22:17;102398.00;;;9.90;67.52
4767;BME280;2397;53.576;9.746;2023-05-29T03:24:45;102394.41;;;9.91;68.21
4767;BME280;2397;53.576;9.746;2023-05-29T03:27:13;102400.03;;;9.74;68.38
4767;BME280;2397;53.576;9.746;2023-05-29T03:29:40;102400.00;;;9.99;67.34
4767;BME280;2397;53.576;9.746;2023-05-29T03:32:07;102405.06;;;10.02;67.01
4767;BME280;2397;53.576;9.746;2023-05-29T03:34:34;102411.41;;;9.87;67.43
4767;BME280;2397;53.576;9.746;2023-05-29T03:37:02;102409.22;;;9.81;68.10
4767;BME280;2397;53.576;9.746;2023-05-29T03:39:30;102410.03;;;9.94;67.90
4767;BME280;2397;53.576;9.746;2023-05-29T03:41:57;102410.56;;;9.74;68.56
4767;BME280;2397;53.576;9.746;2023-05-29T03:44:24;102413.31;;;9.85;68.22
4767;BME280;2397;53.576;9.746;2023-05-29T03:46:51;102418.91;;;9.68;68.93
4767;BME280;2397;53.576;9.746;2023-05-29T03:49:18;102423.00;;;9.72;68.71
4767;BME280;2397;53.576;9.746;2023-05-29T03:51:45;102419.22;;;9.89;68.31
4767;BME280;2397;53.576;9.746;2023-05-29T03:54:13;102414.81;;;10.14;67.92
4767;BME280;2397;53.576;9.746;2023-05-29T03:56:39;102418.59;;;9.98;67.75
4767;BME280;2397;53.576;9.746;2023-05-29T03:59:07;102407.31;;;10.08;68.20
4767;BME280;2397;53.576;9.746;2023-05-29T04:01:34;102412.69;;;10.07;68.29
4767;BME280;2397;53.576;9.746;2023-05-29T04:04:00;102408.56;;;10.03;68.42
4767;BME280;2397;53.576;9.746;2023-05-29T04:06:28;102416.25;;;9.93;69.00
4767;BME280;2397;53.576;9.746;2023-05-29T04:08:56;102417.53;;;10.00;68.18
4767;BME280;2397;53.576;9.746;2023-05-29T04:11:22;102417.31;;;9.91;68.57
4767;BME280;2397;53.576;9.746;2023-05-29T04:13:49;102424.59;;;9.87;68.35
4767;BME280;2397;53.576;9.746;2023-05-29T04:16:16;102432.72;;;9.84;68.39
4767;BME280;2397;53.576;9.746;2023-05-29T04:18:42;102444.31;;;9.94;68.92
4767;BME280;2397;53.576;9.746;2023-05-29T04:21:09;102437.47;;;9.92;68.29
4767;BME280;2397;53.576;9.746;2023-05-29T04:23:37;102438.53;;;9.89;68.55
4767;BME280;2397;53.576;9.746;2023-05-29T04:26:04;102438.63;;;9.75;68.99
4767;BME280;2397;53.576;9.746;2023-05-29T04:28:34;102437.16;;;9.71;69.16
4767;BME280;2397;53.576;9.746;2023-05-29T04:31:00;102453.16;;;9.68;69.46
4767;BME280;2397;53.576;9.746;2023-05-29T04:33:28;102455.28;;;9.63;69.92
4767;BME280;2397;53.576;9.746;2023-05-29T04:35:56;102451.28;;;9.58;70.01
4767;BME280;2397;53.576;9.746;2023-05-29T04:38:23;102454.44;;;9.63;69.98
4767;BME280;2397;53.576;9.746;2023-05-29T04:40:54;102452.53;;;9.52;69.93
4767;BME280;2397;53.576;9.746;2023-05-29T04:43:24;102452.66;;;9.63;69.72
4767;BME280;2397;53.576;9.746;2023-05-29T04:45:59;102458.63;;;9.53;69.70
4767;BME280;2397;53.576;9.746;2023-05-29T04:48:27;102465.38;;;9.44;70.27
4767;BME280;2397;53.576;9.746;2023-05-29T04:50:54;102452.84;;;9.60;70.19
4767;BME280;2397;53.576;9.746;2023-05-29T04:53:21;102455.94;;;9.40;70.33
4767;BME280;2397;53.576;9.746;2023-05-29T04:55:50;102461.84;;;9.31;70.88
4767;BME280;2397;53.576;9.746;2023-05-29T04:58:16;102458.81;;;9.37;70.58
4767;BME280;2397;53.576;9.746;2023-05-29T05:00:43;102467.16;;;9.44;70.69
4767;BME280;2397;53.576;9.746;2023-05-29T05:03:10;102464.97;;;9.63;70.58
4767;BME280;2397;53.576;9.746;2023-05-29T05:05:37;102467.31;;;9.67;69.63
4767;BME280;2397;53.576;9.746;2023-05-29T05:08:04;102469.16;;;9.53;70.28
4767;BME280;2397;53.576;9.746;2023-05-29T05:10:32;102460.13;;;9.69;69.67
4767;BME280;2397;53.576;9.746;2023-05-29T05:12:59;102468.59;;;9.74;69.69
4767;BME280;2397;53.576;9.746;2023-05-29T05:15:29;102467.75;;;9.86;69.56
4767;BME280;2397;53.576;9.746;2023-05-29T05:17:56;102466.91;;;9.98;69.78
4767;BME280;2397;53.576;9.746;2023-05-29T05:20:22;102469.00;;;9.93;69.00
4767;BME280;2397;53.576;9.746;2023-05-29T05:22:55;102462.63;;;10.10;68.67
4767;BME280;2397;53.576;9.746;2023-05-29T05:25:22;102453.63;;;10.38;69.25
4767;BME280;2397;53.576;9.746;2023-05-29T05:27:49;102456.34;;;10.49;67.11
4767;BME280;2397;53.576;9.746;2023-05-29T05:30:16;102457.59;;;10.56;66.86
4767;BME280;2397;53.576;9.746;2023-05-29T05:32:42;102462.22;;;10.52;67.25
4767;BME280;2397;53.576;9.746;2023-05-29T05:35:09;102465.34;;;10.70;66.84
4767;BME280;2397;53.576;9.746;2023-05-29T05:37:38;102463.78;;;10.67;66.60
4767;BME280;2397;53.576;9.746;2023-05-29T05:40:05;102469.69;;;10.71;66.38
4767;BME280;2397;53.576;9.746;2023-05-29T05:42:36;102464.44;;;10.94;65.61
4767;BME280;2397;53.576;9.746;2023-05-29T05:45:08;102461.91;;;10.93;65.13
4767;BME280;2397;53.576;9.746;2023-05-29T05:47:35;102451.50;;;11.02;65.62
4767;BME280;2397;53.576;9.746;2023-05-29T05:50:02;102457.34;;;10.95;65.64
4767;BME280;2397;53.576;9.746;2023-05-29T05:52:28;102462.94;;;10.67;65.80
4767;BME280;2397;53.576;9.746;2023-05-29T05:54:58;102467.41;;;10.90;66.30
4767;BME280;2397;53.576;9.746;2023-05-29T05:57:24;102459.13;;;10.71;66.06
4767;BME280;2397;53.576;9.746;2023-05-29T05:59:51;102467.06;;;10.71;65.90
4767;BME280;2397;53.576;9.746;2023-05-29T06:02:20;102466.59;;;10.77;66.39
4767;BME280;2397;53.576;9.746;2023-05-29T06:04:47;102464.88;;;11.12;65.77
4767;BME280;2397;53.576;9.746;2023-05-29T06:07:16;102475.94;;;11.17;65.25
4767;BME280;2397;53.576;9.746;2023-05-29T06:09:43;102472.81;;;11.12;66.36
4767;BME280;2397;53.576;9.746;2023-05-29T06:12:10;102472.06;;;11.33;65.01
4767;BME280;2397;53.576;9.746;2023-05-29T06:14:43;102478.00;;;11.37;64.47
4767;BME280;2397;53.576;9.746;2023-05-29T06:17:10;102466.19;;;11.30;62.98
4767;BME280;2397;53.576;9.746;2023-05-29T06:19:37;102472.91;;;11.34;65.43
4767;BME280;2397;53.576;9.746;2023-05-29T06:22:05;102468.34;;;11.36;64.60
4767;BME280;2397;53.576;9.746;2023-05-29T06:24:33;102466.00;;;11.44;64.75
4767;BME280;2397;53.576;9.746;2023-05-29T06:26:59;102473.69;;;11.47;63.70
4767;BME280;2397;53.576;9.746;2023-05-29T06:29:26;102473.38;;;11.28;63.67
4767;BME280;2397;53.576;9.746;2023-05-29T06:31:53;102470.00;;;11.26;64.15
4767;BME280;2397;53.576;9.746;2023-05-29T06:34:20;102471.63;;;11.63;63.81
4767;BME280;2397;53.576;9.746;2023-05-29T06:36:46;102470.47;;;11.54;63.33
4767;BME280;2397;53.576;9.746;2023-05-29T06:39:13;102469.28;;;11.58;62.68
4767;BME280;2397;53.576;9.746;2023-05-29T06:41:40;102470.66;;;11.64;63.29
4767;BME280;2397;53.576;9.746;2023-05-29T06:44:07;102460.81;;;11.77;62.54
4767;BME280;2397;53.576;9.746;2023-05-29T06:46:34;102455.53;;;11.77;61.14
4767;BME280;2397;53.576;9.746;2023-05-29T06:49:01;102457.22;;;11.78;61.75
4767;BME280;2397;53.576;9.746;2023-05-29T06:51:33;102456.72;;;11.73;61.45
4767;BME280;2397;53.576;9.746;2023-05-29T06:54:17;102463.47;;;11.77;62.17
4767;BME280;2397;53.576;9.746;2023-05-29T06:56:44;102469.75;;;11.98;60.81
4767;BME280;2397;53.576;9.746;2023-05-29T06:59:27;102475.69;;;12.34;60.96
4767;BME280;2397;53.576;9.746;2023-05-29T07:01:54;102490.00;;;12.21;59.36
4767;BME280;2397;53.576;9.746;2023-05-29T07:04:21;102481.69;;;12.03;60.18
4767;BME280;2397;53.576;9.746;2023-05-29T07:06:47;102481.34;;;12.08;61.17
4767;BME280;2397;53.576;9.746;2023-05-29T07:09:14;102485.91;;;12.39;60.66
4767;BME280;2397;53.576;9.746;2023-05-29T07:11:41;102487.22;;;12.22;59.22
4767;BME280;2397;53.576;9.746;2023-05-29T07:14:07;102479.66;;;12.29;56.88
4767;BME280;2397;53.576;9.746;2023-05-29T07:16:34;102486.19;;;12.36;57.61
4767;BME280;2397;53.576;9.746;2023-05-29T07:19:04;102498.78;;;12.65;58.86
4767;BME280;2397;53.576;9.746;2023-05-29T07:21:34;102486.81;;;13.15;56.61
4767;BME280;2397;53.576;9.746;2023-05-29T07:24:03;102480.28;;;13.19;55.10
4767;BME280;2397;53.576;9.746;2023-05-29T07:26:30;102482.00;;;12.98;55.40
4767;BME280;2397;53.576;9.746;2023-05-29T07:28:57;102496.56;;;12.92;55.99
4767;BME280;2397;53.576;9.746;2023-05-29T07:31:24;102495.28;;;12.43;58.17
4767;BME280;2397;53.576;9.746;2023-05-29T07:33:51;102500.84;;;12.51;57.43
4767;BME280;2397;53.576;9.746;2023-05-29T07:36:19;102506.97;;;12.51;57.88
4767;BME280;2397;53.576;9.746;2023-05-29T07:38:48;102504.44;;;12.72;58.20
4767;BME280;2397;53.576;9.746;2023-05-29T07:41:17;102490.22;;;12.95;56.93
4767;BME280;2397;53.576;9.746;2023-05-29T07:43:50;102498.03;;;12.74;57.39
4767;BME280;2397;53.576;9.746;2023-05-29T07:46:19;102496.34;;;12.95;57.66
4767;BME280;2397;53.576;9.746;2023-05-29T07:48:48;102496.66;;;13.13;56.72
4767;BME280;2397;53.576;9.746;2023-05-29T07:51:15;102499.25;;;13.35;56.33
4767;BME280;2397;53.576;9.746;2023-05-29T07:53:45;102478.59;;;13.70;55.72
4767;BME280;2397;53.576;9.746;2023-05-29T07:56:12;102492.31;;;13.75;57.19
4767;BME280;2397;53.576;9.746;2023-05-29T07:58:40;102492.13;;;14.08;56.41
4767;BME280;2397;53.576;9.746;2023-05-29T08:01:07;102494.66;;;13.89;54.65
4767;BME280;2397;53.576;9.746;2023-05-29T08:03:35;102504.47;;;13.57;56.51
4767;BME280;2397;53.576;9.746;2023-05-29T08:06:20;102508.59;;;13.18;56.08
4767;BME280;2397;53.576;9.746;2023-05-29T08:08:47;102511.13;;;13.20;55.54
4767;BME280;2397;53.576;9.746;2023-05-29T08:11:15;102502.94;;;13.12;54.88
4767;BME280;2397;53.576;9.746;2023-05-29T08:13:41;102499.94;;;13.48;55.01
4767;BME280;2397;53.576;9.746;2023-05-29T08:16:08;102489.34;;;13.89;54.19
4767;BME280;2397;53.576;9.746;2023-05-29T08:18:35;102489.88;;;14.24;53.17
4767;BME280;2397;53.576;9.746;2023-05-29T08:21:02;102492.97;;;14.29;53.69
4767;BME280;2397;53.576;9.746;2023-05-29T08:23:29;102498.84;;;14.63;53.22
4767;BME280;2397;53.576;9.746;2023-05-29T08:26:01;102499.78;;;14.52;54.42
4767;BME280;2397;53.576;9.746;2023-05-29T08:28:29;102500.22;;;14.57;55.87
4767;BME280;2397;53.576;9.746;2023-05-29T08:30:56;102497.91;;;14.73;54.09
4767;BME280;2397;53.576;9.746;2023-05-29T08:33:22;102488.84;;;14.95;53.55
4767;BME280;2397;53.576;9.746;2023-05-29T08:35:49;102489.22;;;14.81;54.20
4767;BME280;2397;53.576;9.746;2023-05-29T08:38:16;102485.91;;;14.88;52.56
4767;BME280;2397;53.576;9.746;2023-05-29T08:40:42;102503.84;;;14.26;55.31
4767;BME280;2397;53.576;9.746;2023-05-29T08:45:44;102485.75;;;14.20;54.10
4767;BME280;2397;53.576;9.746;2023-05-29T08:48:11;102495.31;;;14.53;56.03
4767;BME280;2397;53.576;9.746;2023-05-29T08:50:43;102489.59;;;14.07;54.35
4767;BME280;2397;53.576;9.746;2023-05-29T08:53:13;102481.06;;;14.03;53.89
4767;BME280;2397;53.576;9.746;2023-05-29T08:55:40;102481.13;;;14.43;53.59
4767;BME280;2397;53.576;9.746;2023-05-29T08:58:08;102486.06;;;14.47;53.53
4767;BME280;2397;53.576;9.746;2023-05-29T09:00:36;102488.16;;;14.83;52.52
4767;BME280;2397;53.576;9.746;2023-05-29T09:03:03;102495.53;;;14.80;51.98
4767;BME280;2397;53.576;9.746;2023-05-29T09:05:29;102493.81;;;15.28;52.39
4767;BME280;2397;53.576;9.746;2023-05-29T09:07:56;102477.56;;;15.21;51.89
4767;BME280;2397;53.576;9.746;2023-05-29T09:10:23;102483.75;;;15.50;51.37
4767;BME280;2397;53.576;9.746;2023-05-29T09:12:51;102496.34;;;15.39;53.42
4767;BME280;2397;53.576;9.746;2023-05-29T09:15:23;102474.38;;;15.46;50.67
4767;BME280;2397;53.576;9.746;2023-05-29T09:17:57;102475.47;;;15.82;50.91
4767;BME280;2397;53.576;9.746;2023-05-29T09:20:25;102475.88;;;15.20;50.68
4767;BME280;2397;53.576;9.746;2023-05-29T09:23:09;102486.00;;;15.45;51.75
4767;BME280;2397;53.576;9.746;2023-05-29T09:25:41;102482.75;;;15.23;51.82
4767;BME280;2397;53.576;9.746;2023-05-29T09:28:11;102488.50;;;15.56;52.42
4767;BME280;2397;53.576;9.746;2023-05-29T09:33:05;102490.22;;;15.57;52.68
4767;BME280;2397;53.576;9.746;2023-05-29T09:35:34;102489.75;;;15.71;53.24
4767;BME280;2397;53.576;9.746;2023-05-29T09:38:01;102483.34;;;15.74;52.74
4767;BME280;2397;53.576;9.746;2023-05-29T09:40:29;102488.66;;;16.29;50.56
4767;BME280;2397;53.576;9.746;2023-05-29T09:43:02;102482.13;;;16.60;51.20
4767;BME280;2397;53.576;9.746;2023-05-29T09:45:30;102491.84;;;16.97;50.32
4767;BME280;2397;53.576;9.746;2023-05-29T09:47:58;102480.00;;;16.81;50.58
4767;BME280;2397;53.576;9.746;2023-05-29T09:50:27;102479.13;;;16.91;50.24
4767;BME280;2397;53.576;9.746;2023-05-29T09:52:56;102472.59;;;16.12;50.28
4767;BME280;2397;53.576;9.746;2023-05-29T09:55:24;102479.50;;;16.41;51.26
4767;BME280;2397;53.576;9.746;2023-05-29T09:57:53;102477.06;;;16.57;50.65
4767;BME280;2397;53.576;9.746;2023-05-29T10:00:20;102477.66;;;16.51;50.13
4767;BME280;2397;53.576;9.746;2023-05-29T10:02:48;102476.31;;;16.92;49.82
4767;BME280;2397;53.576;9.746;2023-05-29T10:05:15;102459.03;;;17.14;47.94
4767;BME280;2397;53.576;9.746;2023-05-29T10:07:44;102471.00;;;17.27;49.02
4767;BME280;2397;53.576;9.746;2023-05-29T10:10:14;102471.88;;;17.01;49.89
4767;BME280;2397;53.576;9.746;2023-05-29T10:12:50;102466.66;;;17.26;49.09
4767;BME280;2397;53.576;9.746;2023-05-29T10:15:17;102462.75;;;17.03;48.87
4767;BME280;2397;53.576;9.746;2023-05-29T10:17:51;102464.22;;;17.33;48.59
4767;BME280;2397;53.576;9.746;2023-05-29T10:20:20;102455.75;;;17.98;47.90
4767;BME280;2397;53.576;9.746;2023-05-29T10:22:51;102453.34;;;17.87;46.43
4767;BME280;2397;53.576;9.746;2023-05-29T10:25:19;102444.84;;;17.13;48.25
4767;BME280;2397;53.576;9.746;2023-05-29T10:27:49;102436.38;;;17.00;47.65
4767;BME280;2397;53.576;9.746;2023-05-29T10:30:25;102436.69;;;16.97;47.56
4767;BME280;2397;53.576;9.746;2023-05-29T10:36:13;102430.91;;;17.80;44.57
4767;BME280;2397;53.576;9.746;2023-05-29T10:38:41;102431.84;;;17.71;45.50
4767;BME280;2397;53.576;9.746;2023-05-29T10:43:54;102437.53;;;18.60;46.26
4767;BME280;2397;53.576;9.746;2023-05-29T10:46:21;102442.50;;;18.22;45.16
4767;BME280;2397;53.576;9.746;2023-05-29T10:48:49;102425.03;;;18.69;42.19
4767;BME280;2397;53.576;9.746;2023-05-29T10:51:27;102418.34;;;18.65;41.53
4767;BME280;2397;53.576;9.746;2023-05-29T10:53:54;102413.38;;;18.78;41.77
4767;BME280;2397;53.576;9.746;2023-05-29T10:56:23;102413.06;;;19.05;42.31
4767;BME280;2397;53.576;9.746;2023-05-29T10:58:53;102419.06;;;19.07;43.44
4767;BME280;2397;53.576;9.746;2023-05-29T11:01:24;102413.44;;;19.50;41.90
4767;BME280;2397;53.576;9.746;2023-05-29T11:06:53;102401.50;;;19.04;42.25
4767;BME280;2397;53.576;9.746;2023-05-29T11:12:14;102399.78;;;18.79;45.13
4767;BME280;2397;53.576;9.746;2023-05-29T11:15:09;102393.34;;;19.62;39.97
4767;BME280;2397;53.576;9.746;2023-05-29T11:20:09;102389.63;;;19.79;37.85
4767;BME280;2397;53.576;9.746;2023-05-29T11:23:01;102376.56;;;19.76;37.88
4767;BME280;2397;53.576;9.746;2023-05-29T11:25:28;102379.66;;;20.50;37.40
4767;BME280;2397;53.576;9.746;2023-05-29T11:27:55;102384.72;;;20.76;38.32
4767;BME280;2397;53.576;9.746;2023-05-29T11:30:22;102379.16;;;20.08;38.72
4767;BME280;2397;53.576;9.746;2023-05-29T11:32:49;102379.25;;;19.76;39.44
4767;BME280;2397;53.576;9.746;2023-05-29T11:35:21;102394.66;;;20.37;40.87
4767;BME280;2397;53.576;9.746;2023-05-29T11:37:48;102386.78;;;20.66;40.60
4767;BME280;2397;53.576;9.746;2023-05-29T11:40:18;102390.81;;;21.15;40.66
4767;BME280;2397;53.576;9.746;2023-05-29T11:42:46;102372.06;;;21.66;37.94
4767;BME280;2397;53.576;9.746;2023-05-29T11:45:16;102376.72;;;22.01;37.33
4767;BME280;2397;53.576;9.746;2023-05-29T11:50:32;102362.97;;;22.40;34.56
4767;BME280;2397;53.576;9.746;2023-05-29T11:53:00;102356.31;;;22.07;35.02
4767;BME280;2397;53.576;9.746;2023-05-29T11:55:27;102365.66;;;22.40;34.98
4767;BME280;2397;53.576;9.746;2023-05-29T11:58:02;102352.75;;;22.35;32.75
4767;BME280;2397;53.576;9.746;2023-05-29T12:00:33;102371.88;;;22.40;35.44
4767;BME280;2397;53.576;9.746;2023-05-29T12:03:02;102362.72;;;22.70;35.02
4767;BME280;2397;53.576;9.746;2023-05-29T12:05:45;102361.06;;;21.76;35.10
4767;BME280;2397;53.576;9.746;2023-05-29T12:08:12;102372.72;;;22.26;36.37
4767;BME280;2397;53.576;9.746;2023-05-29T12:10:46;102356.84;;;21.44;32.86
4767;BME280;2397;53.576;9.746;2023-05-29T12:13:13;102352.94;;;21.47;34.28
4767;BME280;2397;53.576;9.746;2023-05-29T12:15:43;102349.00;;;22.15;34.26
4767;BME280;2397;53.576;9.746;2023-05-29T12:18:10;102341.84;;;21.64;35.42
4767;BME280;2397;53.576;9.746;2023-05-29T12:20:37;102356.03;;;21.58;36.27
4767;BME280;2397;53.576;9.746;2023-05-29T12:23:05;102368.28;;;21.75;38.56
4767;BME280;2397;53.576;9.746;2023-05-29T12:25:34;102361.38;;;21.95;36.00
4767;BME280;2397;53.576;9.746;2023-05-29T12:28:03;102359.31;;;21.83;34.92
4767;BME280;2397;53.576;9.746;2023-05-29T12:30:30;102357.78;;;21.66;35.85
4767;BME280;2397;53.576;9.746;2023-05-29T12:33:00;102359.25;;;21.68;36.87
4767;BME280;2397;53.576;9.746;2023-05-29T12:35:29;102365.69;;;22.25;36.67
4767;BME280;2397;53.576;9.746;2023-05-29T12:37:57;102367.31;;;22.41;36.08
4767;BME280;2397;53.576;9.746;2023-05-29T12:40:25;102361.72;;;23.14;35.85
4767;BME280;2397;53.576;9.746;2023-05-29T12:42:57;102350.47;;;23.59;33.12
4767;BME280;2397;53.576;9.746;2023-05-29T12:45:26;102349.06;;;23.35;34.98
4767;BME280;2397;53.576;9.746;2023-05-29T12:50:21;102349.88;;;22.72;34.95
4767;BME280;2397;53.576;9.746;2023-05-29T12:52:56;102337.06;;;22.53;34.66
4767;BME280;2397;53.576;9.746;2023-05-29T12:55:24;102330.38;;;22.64;34.60
4767;BME280;2397;53.576;9.746;2023-05-29T12:57:51;102331.88;;;22.37;36.25
4767;BME280;2397;53.576;9.746;2023-05-29T13:00:18;102328.63;;;22.06;36.46
4767;BME280;2397;53.576;9.746;2023-05-29T13:02:46;102324.78;;;22.86;34.82
4767;BME280;2397;53.576;9.746;2023-05-29T13:05:15;102336.78;;;23.26;37.22
4767;BME280;2397;53.576;9.746;2023-05-29T13:07:42;102329.44;;;22.21;34.99
4767;BME280;2397;53.576;9.746;2023-05-29T13:10:09;102323.56;;;21.45;35.68
4767;BME280;2397;53.576;9.746;2023-05-29T13:12:36;102333.41;;;21.53;37.62
4767;BME280;2397;53.576;9.746;2023-05-29T13:15:03;102337.84;;;22.47;36.84
4767;BME280;2397;53.576;9.746;2023-05-29T13:17:29;102337.63;;;22.34;35.96
4767;BME280;2397;53.576;9.746;2023-05-29T13:19:59;102338.75;;;23.73;35.35
4767;BME280;2397;53.576;9.746;2023-05-29T13:22:26;102322.28;;;23.61;33.13
4767;BME280;2397;53.576;9.746;2023-05-29T13:24:57;102330.66;;;23.73;35.12
4767;BME280;2397;53.576;9.746;2023-05-29T13:27:26;102331.94;;;23.77;34.00
4767;BME280;2397;53.576;9.746;2023-05-29T13:29:53;102325.66;;;22.72;35.10
4767;BME280;2397;53.576;9.746;2023-05-29T13:32:21;102327.94;;;22.90;34.94
4767;BME280;2397;53.576;9.746;2023-05-29T13:34:48;102328.78;;;23.39;35.22
4767;BME280;2397;53.576;9.746;2023-05-29T13:37:14;102351.91;;;24.23;33.47
4767;BME280;2397;53.576;9.746;2023-05-29T13:39:41;102313.75;;;23.92;32.11
4767;BME280;2397;53.576;9.746;2023-05-29T13:42:08;102332.22;;;23.61;33.44
4767;BME280;2397;53.576;9.746;2023-05-29T13:44:36;102326.63;;;23.28;32.94
4767;BME280;2397;53.576;9.746;2023-05-29T13:47:03;102334.03;;;22.27;35.27